sensor_id;sensor_type;location;lat;lon;timestamp;P1;durP1;ratioP1;P2;durP2;ratioP2
2562;SDS011;1291;51.420;6.970;2022-12-07T00:01:22;22.93;;;18.77;;
2562;SDS011;1291;51.420;6.970;2022-12-07T00:03:50;20.80;;;17.13;;
2562;SDS011;1291;51.420;6.970;2022-12-07T00:06:18;22.67;;;17.67;;
2562;SDS011;1291;51.420;6.970;2022-12-07T00:08:44;24.53;;;18.03;;
2562;SDS011;1291;51.420;6.970;2022-12-07T00:11:15;23.00;;;17.07;;
2562;SDS011;1291;51.420;6.970;2022-12-07T00:13:45;21.43;;;17.07;;
2562;SDS011;1291;51.420;6.970;2022-12-07T00:16:14;22.07;;;16.73;;
2562;SDS011;1291;51.420;6.970;2022-12-07T00:18:41;20.50;;;16.70;;
2562;SDS011;1291;51.420;6.970;2022-12-07T00:21:09;20.20;;;17.27;;
2562;SDS011;1291;51.420;6.970;2022-12-07T00:23:36;23.60;;;18.10;;
2562;SDS011;1291;51.420;6.970;2022-12-07T00:26:15;23.73;;;17.83;;
2562;SDS011;1291;51.420;6.970;2022-12-07T00:28:41;27.07;;;18.97;;
2562;SDS011;1291;51.420;6.970;2022-12-07T00:31:13;24.57;;;19.80;;
2562;SDS011;1291;51.420;6.970;2022-12-07T00:33:39;25.03;;;19.73;;
2562;SDS011;1291;51.420;6.970;2022-12-07T00:36:06;24.97;;;20.57;;
2562;SDS011;1291;51.420;6.970;2022-12-07T00:38:34;28.83;;;20.50;;
2562;SDS011;1291;51.420;6.970;2022-12-07T00:41:04;26.30;;;21.13;;
2562;SDS011;1291;51.420;6.970;2022-12-07T00:43:31;26.80;;;21.30;;
2562;SDS011;1291;51.420;6.970;2022-12-07T00:46:00;26.80;;;22.23;;
2562;SDS011;1291;51.420;6.970;2022-12-07T00:48:25;28.43;;;22.23;;
2562;SDS011;1291;51.420;6.970;2022-12-07T00:50:51;27.30;;;22.23;;
2562;SDS011;1291;51.420;6.970;2022-12-07T00:53:16;27.53;;;22.00;;
2562;SDS011;1291;51.420;6.970;2022-12-07T00:55:42;27.63;;;21.83;;
2562;SDS011;1291;51.420;6.970;2022-12-07T00:58:08;31.03;;;21.60;;
2562;SDS011;1291;51.420;6.970;2022-12-07T01:00:37;31.10;;;23.30;;
2562;SDS011;1291;51.420;6.970;2022-12-07T01:03:04;28.20;;;22.37;;
2562;SDS011;1291;51.420;6.970;2022-12-07T01:05:31;28.43;;;21.60;;
2562;SDS011;1291;51.420;6.970;2022-12-07T01:07:56;26.20;;;21.73;;
2562;SDS011;1291;51.420;6.970;2022-12-07T01:10:21;26.57;;;21.60;;
2562;SDS011;1291;51.420;6.970;2022-12-07T01:12:47;27.10;;;21.53;;
2562;SDS011;1291;51.420;6.970;2022-12-07T01:15:12;25.83;;;21.73;;
2562;SDS011;1291;51.420;6.970;2022-12-07T01:17:38;26.23;;;22.17;;
2562;SDS011;1291;51.420;6.970;2022-12-07T01:20:03;29.63;;;24.07;;
2562;SDS011;1291;51.420;6.970;2022-12-07T01:22:29;30.07;;;24.13;;
2562;SDS011;1291;51.420;6.970;2022-12-07T01:24:54;30.47;;;23.07;;
2562;SDS011;1291;51.420;6.970;2022-12-07T01:27:20;30.60;;;24.10;;
2562;SDS011;1291;51.420;6.970;2022-12-07T01:29:45;36.70;;;25.80;;
2562;SDS011;1291;51.420;6.970;2022-12-07T01:32:11;31.10;;;23.13;;
2562;SDS011;1291;51.420;6.970;2022-12-07T01:34:43;31.77;;;23.87;;
2562;SDS011;1291;51.420;6.970;2022-12-07T01:37:08;31.47;;;24.27;;
2562;SDS011;1291;51.420;6.970;2022-12-07T01:39:33;31.07;;;23.43;;
2562;SDS011;1291;51.420;6.970;2022-12-07T01:41:59;33.63;;;25.33;;
2562;SDS011;1291;51.420;6.970;2022-12-07T01:44:28;32.13;;;24.43;;
2562;SDS011;1291;51.420;6.970;2022-12-07T01:47:00;33.50;;;24.03;;
2562;SDS011;1291;51.420;6.970;2022-12-07T01:49:44;37.00;;;25.07;;
2562;SDS011;1291;51.420;6.970;2022-12-07T01:54:51;31.03;;;23.83;;
2562;SDS011;1291;51.420;6.970;2022-12-07T01:57:19;30.73;;;23.17;;
2562;SDS011;1291;51.420;6.970;2022-12-07T01:59:47;29.97;;;23.20;;
2562;SDS011;1291;51.420;6.970;2022-12-07T02:02:20;30.00;;;23.87;;
2562;SDS011;1291;51.420;6.970;2022-12-07T02:04:51;29.40;;;23.70;;
2562;SDS011;1291;51.420;6.970;2022-12-07T02:07:18;33.20;;;22.93;;
2562;SDS011;1291;51.420;6.970;2022-12-07T02:09:48;32.57;;;24.47;;
2562;SDS011;1291;51.420;6.970;2022-12-07T02:12:13;29.17;;;23.00;;
2562;SDS011;1291;51.420;6.970;2022-12-07T02:14:39;33.03;;;25.60;;
2562;SDS011;1291;51.420;6.970;2022-12-07T02:20:13;29.57;;;24.07;;
2562;SDS011;1291;51.420;6.970;2022-12-07T02:31:12;31.93;;;24.70;;
2562;SDS011;1291;51.420;6.970;2022-12-07T02:33:44;33.57;;;24.33;;
2562;SDS011;1291;51.420;6.970;2022-12-07T02:36:20;33.20;;;23.87;;
2562;SDS011;1291;51.420;6.970;2022-12-07T02:41:43;31.37;;;22.70;;
2562;SDS011;1291;51.420;6.970;2022-12-07T02:44:12;34.87;;;24.13;;
2562;SDS011;1291;51.420;6.970;2022-12-07T02:46:46;30.20;;;22.00;;
2562;SDS011;1291;51.420;6.970;2022-12-07T02:49:17;33.83;;;23.53;;
2562;SDS011;1291;51.420;6.970;2022-12-07T02:51:44;29.10;;;21.77;;
2562;SDS011;1291;51.420;6.970;2022-12-07T02:54:12;29.23;;;22.63;;
2562;SDS011;1291;51.420;6.970;2022-12-07T03:16:02;36.63;;;26.50;;
2562;SDS011;1291;51.420;6.970;2022-12-07T03:18:37;31.83;;;23.93;;
2562;SDS011;1291;51.420;6.970;2022-12-07T03:21:19;35.60;;;23.23;;
2562;SDS011;1291;51.420;6.970;2022-12-07T03:23:50;31.87;;;24.17;;
2562;SDS011;1291;51.420;6.970;2022-12-07T03:26:21;38.37;;;24.63;;
2562;SDS011;1291;51.420;6.970;2022-12-07T03:28:52;34.80;;;25.53;;
2562;SDS011;1291;51.420;6.970;2022-12-07T03:31:26;37.57;;;26.50;;
2562;SDS011;1291;51.420;6.970;2022-12-07T03:36:57;34.80;;;24.40;;
2562;SDS011;1291;51.420;6.970;2022-12-07T03:39:39;31.30;;;23.27;;
2562;SDS011;1291;51.420;6.970;2022-12-07T03:42:09;35.83;;;26.07;;
2562;SDS011;1291;51.420;6.970;2022-12-07T03:44:36;34.90;;;23.80;;
2562;SDS011;1291;51.420;6.970;2022-12-07T03:47:46;33.50;;;24.27;;
2562;SDS011;1291;51.420;6.970;2022-12-07T03:52:42;40.97;;;27.57;;
2562;SDS011;1291;51.420;6.970;2022-12-07T03:55:14;34.90;;;26.57;;
2562;SDS011;1291;51.420;6.970;2022-12-07T03:57:45;35.23;;;25.47;;
2562;SDS011;1291;51.420;6.970;2022-12-07T04:00:14;40.57;;;26.83;;
2562;SDS011;1291;51.420;6.970;2022-12-07T04:02:41;35.57;;;24.63;;
2562;SDS011;1291;51.420;6.970;2022-12-07T04:05:07;38.13;;;26.07;;
2562;SDS011;1291;51.420;6.970;2022-12-07T04:07:33;35.97;;;24.53;;
2562;SDS011;1291;51.420;6.970;2022-12-07T04:09:59;31.60;;;22.73;;
2562;SDS011;1291;51.420;6.970;2022-12-07T04:12:24;34.97;;;23.97;;
2562;SDS011;1291;51.420;6.970;2022-12-07T04:14:49;32.03;;;23.80;;
2562;SDS011;1291;51.420;6.970;2022-12-07T04:17:15;29.23;;;22.27;;
2562;SDS011;1291;51.420;6.970;2022-12-07T04:19:41;29.30;;;21.87;;
2562;SDS011;1291;51.420;6.970;2022-12-07T04:22:06;32.20;;;22.53;;
2562;SDS011;1291;51.420;6.970;2022-12-07T04:24:32;31.77;;;23.10;;
2562;SDS011;1291;51.420;6.970;2022-12-07T04:26:58;29.47;;;21.53;;
2562;SDS011;1291;51.420;6.970;2022-12-07T04:29:23;29.47;;;21.53;;
2562;SDS011;1291;51.420;6.970;2022-12-07T04:31:49;26.93;;;20.40;;
2562;SDS011;1291;51.420;6.970;2022-12-07T04:34:15;26.90;;;19.37;;
2562;SDS011;1291;51.420;6.970;2022-12-07T04:36:41;32.30;;;20.07;;
2562;SDS011;1291;51.420;6.970;2022-12-07T04:39:07;27.20;;;20.53;;
2562;SDS011;1291;51.420;6.970;2022-12-07T04:41:41;30.00;;;19.90;;
2562;SDS011;1291;51.420;6.970;2022-12-07T04:44:06;32.63;;;20.77;;
2562;SDS011;1291;51.420;6.970;2022-12-07T04:46:32;26.20;;;19.90;;
2562;SDS011;1291;51.420;6.970;2022-12-07T04:48:58;27.40;;;19.97;;
2562;SDS011;1291;51.420;6.970;2022-12-07T04:51:27;28.47;;;20.50;;
2562;SDS011;1291;51.420;6.970;2022-12-07T04:53:54;29.97;;;22.20;;
2562;SDS011;1291;51.420;6.970;2022-12-07T04:56:20;33.30;;;21.00;;
2562;SDS011;1291;51.420;6.970;2022-12-07T04:58:46;30.67;;;20.90;;
2562;SDS011;1291;51.420;6.970;2022-12-07T05:01:13;33.97;;;19.93;;
2562;SDS011;1291;51.420;6.970;2022-12-07T05:03:39;25.27;;;20.00;;
2562;SDS011;1291;51.420;6.970;2022-12-07T05:06:05;30.87;;;20.17;;
2562;SDS011;1291;51.420;6.970;2022-12-07T05:08:32;28.10;;;19.67;;
2562;SDS011;1291;51.420;6.970;2022-12-07T05:10:58;29.10;;;18.80;;
2562;SDS011;1291;51.420;6.970;2022-12-07T05:13:24;25.00;;;18.47;;
2562;SDS011;1291;51.420;6.970;2022-12-07T05:15:49;28.27;;;19.17;;
2562;SDS011;1291;51.420;6.970;2022-12-07T05:18:15;24.43;;;18.17;;
2562;SDS011;1291;51.420;6.970;2022-12-07T05:20:40;27.17;;;19.00;;
2562;SDS011;1291;51.420;6.970;2022-12-07T05:23:06;24.10;;;19.17;;
2562;SDS011;1291;51.420;6.970;2022-12-07T05:25:34;25.87;;;19.87;;
2562;SDS011;1291;51.420;6.970;2022-12-07T05:28:00;32.00;;;18.67;;
2562;SDS011;1291;51.420;6.970;2022-12-07T05:30:28;30.90;;;19.17;;
2562;SDS011;1291;51.420;6.970;2022-12-07T05:32:54;25.83;;;16.80;;
2562;SDS011;1291;51.420;6.970;2022-12-07T05:35:25;27.07;;;17.63;;
2562;SDS011;1291;51.420;6.970;2022-12-07T05:37:51;26.97;;;17.40;;
2562;SDS011;1291;51.420;6.970;2022-12-07T05:40:22;25.43;;;17.20;;
2562;SDS011;1291;51.420;6.970;2022-12-07T05:42:47;24.73;;;16.90;;
2562;SDS011;1291;51.420;6.970;2022-12-07T05:45:13;23.95;;;17.15;;
2562;SDS011;1291;51.420;6.970;2022-12-07T05:47:38;23.33;;;16.80;;
2562;SDS011;1291;51.420;6.970;2022-12-07T05:50:04;21.10;;;16.57;;
2562;SDS011;1291;51.420;6.970;2022-12-07T05:52:30;26.03;;;16.60;;
2562;SDS011;1291;51.420;6.970;2022-12-07T05:54:56;22.60;;;16.77;;
2562;SDS011;1291;51.420;6.970;2022-12-07T05:57:21;21.97;;;15.63;;
2562;SDS011;1291;51.420;6.970;2022-12-07T05:59:46;23.40;;;16.33;;
2562;SDS011;1291;51.420;6.970;2022-12-07T06:02:13;25.03;;;16.80;;
2562;SDS011;1291;51.420;6.970;2022-12-07T06:04:40;22.20;;;15.23;;
2562;SDS011;1291;51.420;6.970;2022-12-07T06:07:08;22.93;;;15.80;;
2562;SDS011;1291;51.420;6.970;2022-12-07T06:09:34;20.03;;;15.10;;
2562;SDS011;1291;51.420;6.970;2022-12-07T06:11:59;21.73;;;15.83;;
2562;SDS011;1291;51.420;6.970;2022-12-07T06:14:44;21.87;;;14.67;;
2562;SDS011;1291;51.420;6.970;2022-12-07T06:17:10;26.43;;;15.03;;
2562;SDS011;1291;51.420;6.970;2022-12-07T06:19:38;23.97;;;14.97;;
2562;SDS011;1291;51.420;6.970;2022-12-07T06:22:04;21.77;;;15.47;;
2562;SDS011;1291;51.420;6.970;2022-12-07T06:24:30;22.03;;;14.67;;
2562;SDS011;1291;51.420;6.970;2022-12-07T06:26:56;23.30;;;14.33;;
2562;SDS011;1291;51.420;6.970;2022-12-07T06:29:22;22.23;;;15.07;;
2562;SDS011;1291;51.420;6.970;2022-12-07T06:31:48;24.87;;;15.97;;
2562;SDS011;1291;51.420;6.970;2022-12-07T06:34:14;21.17;;;15.10;;
2562;SDS011;1291;51.420;6.970;2022-12-07T06:36:45;24.03;;;16.23;;
2562;SDS011;1291;51.420;6.970;2022-12-07T06:39:16;24.30;;;15.20;;
2562;SDS011;1291;51.420;6.970;2022-12-07T06:41:41;23.87;;;15.83;;
2562;SDS011;1291;51.420;6.970;2022-12-07T06:44:06;24.93;;;15.53;;
2562;SDS011;1291;51.420;6.970;2022-12-07T06:46:32;23.50;;;15.80;;
2562;SDS011;1291;51.420;6.970;2022-12-07T06:48:58;24.20;;;15.60;;
2562;SDS011;1291;51.420;6.970;2022-12-07T06:51:23;22.70;;;15.30;;
2562;SDS011;1291;51.420;6.970;2022-12-07T06:53:48;23.73;;;15.13;;
2562;SDS011;1291;51.420;6.970;2022-12-07T06:56:14;24.00;;;14.77;;
2562;SDS011;1291;51.420;6.970;2022-12-07T06:58:40;22.33;;;14.67;;
2562;SDS011;1291;51.420;6.970;2022-12-07T07:01:10;21.30;;;14.13;;
2562;SDS011;1291;51.420;6.970;2022-12-07T07:03:36;21.97;;;14.30;;
2562;SDS011;1291;51.420;6.970;2022-12-07T07:06:02;18.10;;;13.27;;
2562;SDS011;1291;51.420;6.970;2022-12-07T07:08:27;22.30;;;14.57;;
2562;SDS011;1291;51.420;6.970;2022-12-07T07:10:52;19.83;;;14.93;;
2562;SDS011;1291;51.420;6.970;2022-12-07T07:13:18;25.23;;;13.53;;
2562;SDS011;1291;51.420;6.970;2022-12-07T07:15:43;23.47;;;14.70;;
2562;SDS011;1291;51.420;6.970;2022-12-07T07:18:08;23.57;;;13.40;;
2562;SDS011;1291;51.420;6.970;2022-12-07T07:20:34;19.80;;;13.43;;
2562;SDS011;1291;51.420;6.970;2022-12-07T07:22:59;21.10;;;13.53;;
2562;SDS011;1291;51.420;6.970;2022-12-07T07:25:25;22.97;;;14.67;;
2562;SDS011;1291;51.420;6.970;2022-12-07T07:27:50;28.17;;;15.17;;
2562;SDS011;1291;51.420;6.970;2022-12-07T07:30:15;27.03;;;16.90;;
2562;SDS011;1291;51.420;6.970;2022-12-07T07:32:41;28.53;;;18.10;;
2562;SDS011;1291;51.420;6.970;2022-12-07T07:35:06;25.63;;;16.37;;
2562;SDS011;1291;51.420;6.970;2022-12-07T07:37:32;21.53;;;14.30;;
2562;SDS011;1291;51.420;6.970;2022-12-07T07:40:00;22.23;;;14.93;;
2562;SDS011;1291;51.420;6.970;2022-12-07T07:42:25;25.17;;;16.33;;
2562;SDS011;1291;51.420;6.970;2022-12-07T07:44:50;24.90;;;15.73;;
2562;SDS011;1291;51.420;6.970;2022-12-07T07:47:16;25.23;;;17.33;;
2562;SDS011;1291;51.420;6.970;2022-12-07T07:49:41;26.50;;;16.57;;
2562;SDS011;1291;51.420;6.970;2022-12-07T07:52:06;22.63;;;14.73;;
2562;SDS011;1291;51.420;6.970;2022-12-07T07:54:32;22.57;;;15.10;;
2562;SDS011;1291;51.420;6.970;2022-12-07T07:56:57;19.17;;;14.13;;
2562;SDS011;1291;51.420;6.970;2022-12-07T07:59:22;21.37;;;13.17;;
2562;SDS011;1291;51.420;6.970;2022-12-07T08:01:48;22.30;;;13.97;;
2562;SDS011;1291;51.420;6.970;2022-12-07T08:04:13;16.23;;;12.33;;
2562;SDS011;1291;51.420;6.970;2022-12-07T08:06:39;19.97;;;13.90;;
2562;SDS011;1291;51.420;6.970;2022-12-07T08:09:04;22.03;;;13.83;;
2562;SDS011;1291;51.420;6.970;2022-12-07T08:11:31;19.37;;;12.70;;
2562;SDS011;1291;51.420;6.970;2022-12-07T08:13:56;20.87;;;12.83;;
2562;SDS011;1291;51.420;6.970;2022-12-07T08:16:22;20.73;;;13.73;;
2562;SDS011;1291;51.420;6.970;2022-12-07T08:18:47;23.83;;;13.87;;
2562;SDS011;1291;51.420;6.970;2022-12-07T08:21:13;25.70;;;13.53;;
2562;SDS011;1291;51.420;6.970;2022-12-07T08:23:39;19.43;;;13.00;;
2562;SDS011;1291;51.420;6.970;2022-12-07T08:26:08;22.20;;;14.60;;
2562;SDS011;1291;51.420;6.970;2022-12-07T08:28:34;21.43;;;12.60;;
2562;SDS011;1291;51.420;6.970;2022-12-07T08:31:18;20.00;;;12.57;;
2562;SDS011;1291;51.420;6.970;2022-12-07T08:33:45;20.47;;;12.57;;
2562;SDS011;1291;51.420;6.970;2022-12-07T08:36:11;20.00;;;12.37;;
2562;SDS011;1291;51.420;6.970;2022-12-07T08:38:38;20.57;;;11.60;;
2562;SDS011;1291;51.420;6.970;2022-12-07T08:41:05;15.50;;;12.07;;
2562;SDS011;1291;51.420;6.970;2022-12-07T08:43:31;15.00;;;11.33;;
2562;SDS011;1291;51.420;6.970;2022-12-07T08:48:44;14.30;;;10.70;;
2562;SDS011;1291;51.420;6.970;2022-12-07T08:51:14;15.37;;;11.57;;
2562;SDS011;1291;51.420;6.970;2022-12-07T08:53:40;17.43;;;12.33;;
2562;SDS011;1291;51.420;6.970;2022-12-07T08:56:07;18.03;;;11.90;;
2562;SDS011;1291;51.420;6.970;2022-12-07T08:58:34;16.83;;;10.50;;
2562;SDS011;1291;51.420;6.970;2022-12-07T09:01:01;17.30;;;11.83;;
2562;SDS011;1291;51.420;6.970;2022-12-07T09:03:26;23.07;;;13.00;;
2562;SDS011;1291;51.420;6.970;2022-12-07T09:05:53;19.27;;;11.87;;
2562;SDS011;1291;51.420;6.970;2022-12-07T09:08:19;22.67;;;12.33;;
2562;SDS011;1291;51.420;6.970;2022-12-07T09:10:45;24.10;;;11.67;;
2562;SDS011;1291;51.420;6.970;2022-12-07T09:13:11;17.00;;;11.90;;
2562;SDS011;1291;51.420;6.970;2022-12-07T09:15:36;24.13;;;11.87;;
2562;SDS011;1291;51.420;6.970;2022-12-07T09:18:02;15.73;;;11.87;;
2562;SDS011;1291;51.420;6.970;2022-12-07T09:20:27;17.97;;;11.73;;
2562;SDS011;1291;51.420;6.970;2022-12-07T09:22:52;16.00;;;11.80;;
2562;SDS011;1291;51.420;6.970;2022-12-07T09:25:18;18.60;;;12.07;;
2562;SDS011;1291;51.420;6.970;2022-12-07T09:27:43;21.23;;;12.50;;
2562;SDS011;1291;51.420;6.970;2022-12-07T09:30:08;19.77;;;11.43;;
2562;SDS011;1291;51.420;6.970;2022-12-07T09:32:34;17.63;;;10.50;;
2562;SDS011;1291;51.420;6.970;2022-12-07T09:34:59;20.07;;;12.03;;
2562;SDS011;1291;51.420;6.970;2022-12-07T09:37:25;19.70;;;11.50;;
2562;SDS011;1291;51.420;6.970;2022-12-07T09:39:50;16.77;;;10.70;;
2562;SDS011;1291;51.420;6.970;2022-12-07T09:45:16;17.87;;;11.10;;
2562;SDS011;1291;51.420;6.970;2022-12-07T09:47:46;13.83;;;9.47;;
2562;SDS011;1291;51.420;6.970;2022-12-07T09:50:13;17.77;;;9.77;;
2562;SDS011;1291;51.420;6.970;2022-12-07T09:52:42;14.70;;;10.13;;
2562;SDS011;1291;51.420;6.970;2022-12-07T09:55:14;12.97;;;8.87;;
2562;SDS011;1291;51.420;6.970;2022-12-07T09:57:44;19.67;;;10.17;;
2562;SDS011;1291;51.420;6.970;2022-12-07T10:00:12;16.17;;;9.63;;
2562;SDS011;1291;51.420;6.970;2022-12-07T10:02:46;16.50;;;9.10;;
2562;SDS011;1291;51.420;6.970;2022-12-07T10:05:19;17.17;;;9.77;;
2562;SDS011;1291;51.420;6.970;2022-12-07T10:07:49;17.33;;;9.07;;
2562;SDS011;1291;51.420;6.970;2022-12-07T10:10:15;14.70;;;9.33;;
2562;SDS011;1291;51.420;6.970;2022-12-07T10:12:52;15.57;;;8.47;;
2562;SDS011;1291;51.420;6.970;2022-12-07T10:18:20;15.80;;;8.77;;
2562;SDS011;1291;51.420;6.970;2022-12-07T10:20:46;13.93;;;8.60;;
2562;SDS011;1291;51.420;6.970;2022-12-07T10:23:17;13.87;;;8.63;;
2562;SDS011;1291;51.420;6.970;2022-12-07T10:25:43;15.80;;;8.80;;
2562;SDS011;1291;51.420;6.970;2022-12-07T10:28:15;15.03;;;7.73;;
2562;SDS011;1291;51.420;6.970;2022-12-07T10:31:01;16.60;;;8.43;;
2562;SDS011;1291;51.420;6.970;2022-12-07T10:33:53;14.60;;;8.27;;
2562;SDS011;1291;51.420;6.970;2022-12-07T10:39:02;12.47;;;7.27;;
2562;SDS011;1291;51.420;6.970;2022-12-07T10:41:53;14.37;;;7.77;;
2562;SDS011;1291;51.420;6.970;2022-12-07T10:44:24;12.10;;;8.30;;
2562;SDS011;1291;51.420;6.970;2022-12-07T10:57:46;13.90;;;6.40;;
2562;SDS011;1291;51.420;6.970;2022-12-07T11:00:43;11.80;;;6.00;;
2562;SDS011;1291;51.420;6.970;2022-12-07T11:03:30;9.07;;;5.33;;
2562;SDS011;1291;51.420;6.970;2022-12-07T11:11:36;9.60;;;5.40;;
2562;SDS011;1291;51.420;6.970;2022-12-07T11:17:08;14.07;;;6.30;;
2562;SDS011;1291;51.420;6.970;2022-12-07T11:22:24;11.47;;;6.53;;
2562;SDS011;1291;51.420;6.970;2022-12-07T11:35:36;13.90;;;5.93;;
2562;SDS011;1291;51.420;6.970;2022-12-07T11:40:45;12.97;;;5.53;;
2562;SDS011;1291;51.420;6.970;2022-12-07T11:43:26;9.70;;;5.73;;
2562;SDS011;1291;51.420;6.970;2022-12-07T11:45:58;11.60;;;5.93;;
2562;SDS011;1291;51.420;6.970;2022-12-07T11:48:30;15.33;;;6.67;;
2562;SDS011;1291;51.420;6.970;2022-12-07T11:50:59;11.40;;;5.67;;
2562;SDS011;1291;51.420;6.970;2022-12-07T11:56:19;8.50;;;4.60;;
2562;SDS011;1291;51.420;6.970;2022-12-07T12:07:27;10.10;;;4.57;;
2562;SDS011;1291;51.420;6.970;2022-12-07T12:09:54;8.90;;;4.40;;
2562;SDS011;1291;51.420;6.970;2022-12-07T12:12:31;10.60;;;4.83;;
2562;SDS011;1291;51.420;6.970;2022-12-07T12:20:40;5.83;;;3.97;;
2562;SDS011;1291;51.420;6.970;2022-12-07T12:23:13;8.60;;;4.37;;
2562;SDS011;1291;51.420;6.970;2022-12-07T12:31:32;10.00;;;3.77;;
2562;SDS011;1291;51.420;6.970;2022-12-07T12:34:02;6.73;;;4.03;;
2562;SDS011;1291;51.420;6.970;2022-12-07T12:39:11;11.57;;;4.67;;
2562;SDS011;1291;51.420;6.970;2022-12-07T12:51:45;10.33;;;4.07;;
2562;SDS011;1291;51.420;6.970;2022-12-07T12:56:53;11.17;;;3.87;;
2562;SDS011;1291;51.420;6.970;2022-12-07T12:59:29;6.57;;;3.70;;
2562;SDS011;1291;51.420;6.970;2022-12-07T13:02:06;11.10;;;4.40;;
2562;SDS011;1291;51.420;6.970;2022-12-07T13:07:47;10.83;;;3.50;;
2562;SDS011;1291;51.420;6.970;2022-12-07T13:15:56;10.90;;;3.83;;
2562;SDS011;1291;51.420;6.970;2022-12-07T13:18:39;7.93;;;3.43;;
2562;SDS011;1291;51.420;6.970;2022-12-07T13:26:14;7.93;;;4.00;;
2562;SDS011;1291;51.420;6.970;2022-12-07T13:28:45;7.43;;;2.70;;
2562;SDS011;1291;51.420;6.970;2022-12-07T13:34:31;8.07;;;3.13;;
2562;SDS011;1291;51.420;6.970;2022-12-07T13:37:09;7.97;;;3.27;;
2562;SDS011;1291;51.420;6.970;2022-12-07T13:39:46;7.07;;;2.40;;
2562;SDS011;1291;51.420;6.970;2022-12-07T13:42:33;8.87;;;2.97;;
2562;SDS011;1291;51.420;6.970;2022-12-07T13:45:00;9.23;;;3.60;;
2562;SDS011;1291;51.420;6.970;2022-12-07T13:47:48;20.53;;;4.10;;
2562;SDS011;1291;51.420;6.970;2022-12-07T13:50:28;10.87;;;3.80;;
2562;SDS011;1291;51.420;6.970;2022-12-07T13:52:57;9.10;;;3.50;;
2562;SDS011;1291;51.420;6.970;2022-12-07T13:55:24;7.93;;;3.37;;
2562;SDS011;1291;51.420;6.970;2022-12-07T13:57:51;7.47;;;3.23;;
2562;SDS011;1291;51.420;6.970;2022-12-07T14:00:18;10.53;;;4.03;;
2562;SDS011;1291;51.420;6.970;2022-12-07T14:05:52;4.60;;;3.27;;
2562;SDS011;1291;51.420;6.970;2022-12-07T14:08:37;5.00;;;3.00;;
2562;SDS011;1291;51.420;6.970;2022-12-07T14:11:03;7.87;;;3.53;;
2562;SDS011;1291;51.420;6.970;2022-12-07T14:13:36;6.67;;;3.73;;
2562;SDS011;1291;51.420;6.970;2022-12-07T14:16:05;10.03;;;4.20;;
2562;SDS011;1291;51.420;6.970;2022-12-07T14:18:58;8.77;;;3.90;;
2562;SDS011;1291;51.420;6.970;2022-12-07T14:21:26;8.27;;;4.13;;
2562;SDS011;1291;51.420;6.970;2022-12-07T14:26:48;7.90;;;4.50;;
2562;SDS011;1291;51.420;6.970;2022-12-07T14:29:18;10.00;;;4.60;;
2562;SDS011;1291;51.420;6.970;2022-12-07T14:31:45;5.83;;;3.63;;
2562;SDS011;1291;51.420;6.970;2022-12-07T14:34:14;11.73;;;4.53;;
2562;SDS011;1291;51.420;6.970;2022-12-07T14:36:39;9.27;;;4.30;;
2562;SDS011;1291;51.420;6.970;2022-12-07T14:39:07;7.80;;;4.70;;
2562;SDS011;1291;51.420;6.970;2022-12-07T14:41:33;9.83;;;4.97;;
2562;SDS011;1291;51.420;6.970;2022-12-07T14:44:16;8.07;;;4.53;;
2562;SDS011;1291;51.420;6.970;2022-12-07T14:46:43;14.53;;;4.53;;
2562;SDS011;1291;51.420;6.970;2022-12-07T14:49:10;11.80;;;4.90;;
2562;SDS011;1291;51.420;6.970;2022-12-07T14:51:36;10.37;;;4.20;;
2562;SDS011;1291;51.420;6.970;2022-12-07T14:54:07;11.67;;;4.43;;
2562;SDS011;1291;51.420;6.970;2022-12-07T14:56:40;10.07;;;4.57;;
2562;SDS011;1291;51.420;6.970;2022-12-07T14:59:06;6.97;;;3.90;;
2562;SDS011;1291;51.420;6.970;2022-12-07T15:01:32;8.43;;;3.57;;
2562;SDS011;1291;51.420;6.970;2022-12-07T15:03:57;9.37;;;4.40;;
2562;SDS011;1291;51.420;6.970;2022-12-07T15:06:23;13.93;;;4.90;;
2562;SDS011;1291;51.420;6.970;2022-12-07T15:08:48;9.83;;;4.50;;
2562;SDS011;1291;51.420;6.970;2022-12-07T15:11:14;8.53;;;3.80;;
2562;SDS011;1291;51.420;6.970;2022-12-07T15:13:40;9.37;;;4.03;;
2562;SDS011;1291;51.420;6.970;2022-12-07T15:16:24;10.53;;;4.00;;
2562;SDS011;1291;51.420;6.970;2022-12-07T15:18:50;11.90;;;4.07;;
2562;SDS011;1291;51.420;6.970;2022-12-07T15:21:16;11.17;;;4.83;;
2562;SDS011;1291;51.420;6.970;2022-12-07T15:23:42;10.70;;;4.13;;
2562;SDS011;1291;51.420;6.970;2022-12-07T15:26:09;6.60;;;3.90;;
2562;SDS011;1291;51.420;6.970;2022-12-07T15:28:35;11.77;;;4.20;;
2562;SDS011;1291;51.420;6.970;2022-12-07T15:31:01;9.70;;;4.53;;
2562;SDS011;1291;51.420;6.970;2022-12-07T15:33:26;7.10;;;4.50;;
2562;SDS011;1291;51.420;6.970;2022-12-07T15:35:51;8.60;;;4.20;;
2562;SDS011;1291;51.420;6.970;2022-12-07T15:38:20;9.67;;;3.97;;
2562;SDS011;1291;51.420;6.970;2022-12-07T15:40:48;8.57;;;4.13;;
2562;SDS011;1291;51.420;6.970;2022-12-07T15:43:14;9.03;;;4.27;;
2562;SDS011;1291;51.420;6.970;2022-12-07T15:46:00;8.93;;;4.17;;
2562;SDS011;1291;51.420;6.970;2022-12-07T15:48:25;10.43;;;4.23;;
2562;SDS011;1291;51.420;6.970;2022-12-07T15:50:50;7.13;;;4.13;;
2562;SDS011;1291;51.420;6.970;2022-12-07T15:53:16;8.80;;;4.37;;
2562;SDS011;1291;51.420;6.970;2022-12-07T15:55:45;7.40;;;4.13;;
2562;SDS011;1291;51.420;6.970;2022-12-07T15:58:10;7.77;;;4.77;;
2562;SDS011;1291;51.420;6.970;2022-12-07T16:00:35;12.30;;;4.33;;
2562;SDS011;1291;51.420;6.970;2022-12-07T16:03:01;13.23;;;4.50;;
2562;SDS011;1291;51.420;6.970;2022-12-07T16:05:26;10.97;;;4.47;;
2562;SDS011;1291;51.420;6.970;2022-12-07T16:07:51;8.63;;;4.87;;
2562;SDS011;1291;51.420;6.970;2022-12-07T16:10:17;14.33;;;4.93;;
2562;SDS011;1291;51.420;6.970;2022-12-07T16:12:42;12.50;;;4.53;;
2562;SDS011;1291;51.420;6.970;2022-12-07T16:15:10;10.67;;;4.40;;
2562;SDS011;1291;51.420;6.970;2022-12-07T16:17:36;10.70;;;5.13;;
2562;SDS011;1291;51.420;6.970;2022-12-07T16:20:01;15.40;;;5.33;;
2562;SDS011;1291;51.420;6.970;2022-12-07T16:22:28;12.10;;;5.10;;
2562;SDS011;1291;51.420;6.970;2022-12-07T16:24:53;13.67;;;5.20;;
2562;SDS011;1291;51.420;6.970;2022-12-07T16:27:18;11.50;;;5.30;;
2562;SDS011;1291;51.420;6.970;2022-12-07T16:29:43;12.57;;;5.50;;
2562;SDS011;1291;51.420;6.970;2022-12-07T16:32:09;12.53;;;5.17;;
2562;SDS011;1291;51.420;6.970;2022-12-07T16:34:34;11.30;;;6.00;;
2562;SDS011;1291;51.420;6.970;2022-12-07T16:37:00;10.13;;;5.10;;
2562;SDS011;1291;51.420;6.970;2022-12-07T16:39:25;10.13;;;4.97;;
2562;SDS011;1291;51.420;6.970;2022-12-07T16:41:50;14.13;;;5.53;;
2562;SDS011;1291;51.420;6.970;2022-12-07T16:44:17;12.00;;;5.07;;
2562;SDS011;1291;51.420;6.970;2022-12-07T16:46:43;9.63;;;4.97;;
2562;SDS011;1291;51.420;6.970;2022-12-07T16:49:10;12.73;;;4.87;;
2562;SDS011;1291;51.420;6.970;2022-12-07T16:51:37;9.87;;;5.83;;
2562;SDS011;1291;51.420;6.970;2022-12-07T16:54:03;8.63;;;5.47;;
2562;SDS011;1291;51.420;6.970;2022-12-07T16:56:28;14.13;;;5.80;;
2562;SDS011;1291;51.420;6.970;2022-12-07T16:58:54;9.13;;;5.20;;
2562;SDS011;1291;51.420;6.970;2022-12-07T17:01:22;7.90;;;4.43;;
2562;SDS011;1291;51.420;6.970;2022-12-07T17:03:48;6.57;;;4.13;;
2562;SDS011;1291;51.420;6.970;2022-12-07T17:06:14;11.17;;;4.43;;
2562;SDS011;1291;51.420;6.970;2022-12-07T17:08:44;11.87;;;3.97;;
2562;SDS011;1291;51.420;6.970;2022-12-07T17:11:11;10.03;;;4.20;;
2562;SDS011;1291;51.420;6.970;2022-12-07T17:13:41;8.57;;;4.07;;
2562;SDS011;1291;51.420;6.970;2022-12-07T17:16:25;8.63;;;4.00;;
2562;SDS011;1291;51.420;6.970;2022-12-07T17:18:52;10.73;;;4.23;;
2562;SDS011;1291;51.420;6.970;2022-12-07T17:23:53;11.67;;;4.47;;
2562;SDS011;1291;51.420;6.970;2022-12-07T17:26:20;8.57;;;4.40;;
2562;SDS011;1291;51.420;6.970;2022-12-07T17:31:23;8.30;;;4.27;;
2562;SDS011;1291;51.420;6.970;2022-12-07T17:33:49;14.37;;;5.00;;
2562;SDS011;1291;51.420;6.970;2022-12-07T17:36:30;7.97;;;4.63;;
2562;SDS011;1291;51.420;6.970;2022-12-07T17:38:56;10.80;;;4.77;;